createdAt,value
2019-04-23T00:04:13.319Z,40.21
2019-04-23T00:06:45.401Z,40.74
2019-04-23T00:09:12.461Z,39.99
2019-04-23T00:11:33.960Z,40.82
2019-04-23T00:14:05.968Z,40.63
2019-04-23T00:16:30.147Z,40.39
2019-04-23T00:18:59.346Z,40.51
2019-04-23T00:21:43.043Z,41.22
2019-04-23T00:24:17.382Z,41.15
2019-04-23T00:26:47.522Z,40.95
2019-04-23T00:31:32.900Z,41.09
2019-04-23T00:34:01.086Z,40.99
2019-04-23T00:36:45.915Z,41.47
2019-04-23T00:38:54.224Z,41.39
2019-04-23T00:41:33.124Z,41.28
2019-04-23T00:44:06.332Z,41.32
2019-04-23T00:46:24.874Z,41.31
2019-04-23T00:49:03.676Z,41.77
2019-04-23T00:51:18.167Z,41.35
2019-04-23T00:53:43.853Z,41.66
2019-04-23T00:56:32.151Z,41.53
2019-04-23T01:01:14.851Z,41.81
2019-04-23T01:03:41.646Z,41.97
2019-04-23T01:06:18.502Z,41.88
2019-04-23T01:08:36.804Z,42.52
2019-04-23T01:11:13.390Z,42.08
2019-04-23T01:16:05.661Z,42.43
2019-04-23T01:21:13.953Z,42.29
2019-04-23T01:23:58.861Z,43.09
2019-04-23T01:26:42.206Z,43.09
2019-04-23T01:29:40.027Z,42.67
2019-04-23T01:31:48.639Z,43.21
2019-04-23T01:34:20.185Z,42.95
2019-04-23T01:36:35.566Z,43.10
2019-04-23T01:39:11.627Z,43.06
2019-04-23T01:41:44.822Z,43.31
2019-04-23T01:44:07.444Z,43.34
2019-04-23T01:46:36.203Z,43.34
2019-04-23T01:49:07.812Z,43.85
2019-04-23T01:51:34.420Z,43.78
2019-04-23T01:54:00.249Z,43.42
2019-04-23T01:56:30.803Z,43.54
2019-04-23T01:59:02.413Z,43.80
2019-04-23T02:01:36.632Z,44.04
2019-04-23T02:04:03.215Z,43.66
2019-04-23T02:06:20.356Z,44.09
2019-04-23T02:08:52.492Z,44.00
2019-04-23T02:11:16.436Z,43.97
2019-04-23T02:13:51.976Z,44.24
2019-04-23T02:16:23.051Z,44.34
2019-04-23T02:18:41.579Z,44.53
2019-04-23T02:21:14.889Z,44.63
2019-04-23T02:23:57.250Z,45.01
2019-04-23T02:26:33.315Z,45.02
2019-04-23T02:28:46.052Z,44.97
2019-04-23T02:36:22.715Z,45.26
2019-04-23T02:38:47.670Z,45.46
2019-04-23T02:41:08.928Z,45.48
2019-04-23T02:43:28.150Z,45.55
2019-04-23T02:46:13.236Z,45.40
2019-04-23T02:48:30.748Z,45.72
2019-04-23T02:50:54.162Z,45.90
2019-04-23T02:53:45.556Z,45.97
2019-04-23T02:56:05.753Z,46.53
2019-04-23T02:58:43.755Z,46.74
2019-04-23T03:01:19.519Z,46.58
2019-04-23T03:03:33.253Z,46.41
2019-04-23T03:05:51.042Z,46.61
2019-04-23T03:10:59.790Z,46.25
2019-04-23T03:23:50.002Z,47.14
2019-04-23T03:26:16.007Z,47.42
2019-04-23T03:41:08.935Z,48.23
2019-04-23T03:43:33.238Z,47.86
2019-04-23T03:46:12.434Z,48.15
2019-04-23T03:50:49.316Z,48.19
2019-04-23T03:53:32.699Z,48.30
2019-04-23T03:55:58.722Z,49.07
2019-04-23T03:58:21.422Z,48.42
2019-04-23T04:00:51.531Z,48.46
2019-04-23T04:03:42.417Z,48.81
2019-04-23T04:05:45.835Z,49.06
2019-04-23T04:10:44.748Z,49.06
2019-04-23T04:13:11.911Z,49.10
2019-04-23T04:18:21.331Z,49.43
2019-04-23T04:20:40.264Z,49.93
2019-04-23T04:28:12.068Z,50.26
2019-04-23T04:35:24.789Z,50.34
2019-04-23T04:38:10.024Z,49.98
2019-04-23T04:40:33.078Z,50.53
2019-04-23T04:47:44.833Z,50.28
2019-04-23T04:50:34.991Z,50.08
2019-04-23T04:55:18.199Z,50.43
2019-04-23T04:57:43.794Z,50.37
2019-04-23T05:02:53.144Z,50.73
2019-04-23T05:05:20.622Z,50.45
2019-04-23T05:07:38.192Z,50.72
2019-04-23T05:12:32.518Z,50.05
2019-04-23T05:15:03.060Z,49.98
2019-04-23T05:17:42.546Z,50.13
2019-04-23T05:20:04.637Z,50.19
2019-04-23T05:22:36.330Z,49.78
2019-04-23T05:24:51.279Z,49.71
2019-04-23T05:27:28.957Z,49.49
2019-04-23T05:30:02.874Z,48.95
2019-04-23T05:32:20.547Z,49.06
2019-04-23T05:34:50.415Z,48.80
2019-04-23T05:37:29.411Z,48.70
2019-04-23T05:39:49.531Z,49.24
2019-04-23T05:42:20.060Z,48.32
2019-04-23T05:44:43.329Z,48.25
2019-04-23T05:47:17.097Z,47.92
2019-04-23T05:49:43.471Z,47.74
2019-04-23T05:52:09.590Z,48.08
2019-04-23T05:54:35.160Z,47.89
2019-04-23T05:57:00.621Z,47.49
2019-04-23T05:59:30.089Z,47.84
2019-04-23T06:01:57.239Z,47.51
2019-04-23T06:04:32.648Z,47.38
2019-04-23T06:07:08.350Z,47.27
2019-04-23T06:09:28.820Z,47.29
2019-04-23T06:11:56.691Z,47.16
2019-04-23T06:14:40.285Z,47.24
2019-04-23T06:17:01.997Z,47.03
2019-04-23T06:19:18.952Z,47.83
2019-04-23T06:26:45.562Z,47.11
2019-04-23T06:29:20.484Z,46.91
2019-04-23T06:31:46.703Z,46.79
2019-04-23T06:34:12.494Z,47.09
2019-04-23T06:36:38.782Z,46.52
2019-04-23T06:39:02.987Z,46.96
2019-04-23T06:41:37.541Z,46.87
2019-04-23T06:44:14.360Z,46.94
2019-04-23T06:46:39.523Z,46.73
2019-04-23T06:49:02.476Z,47.04
2019-04-23T06:51:34.876Z,46.33
2019-04-23T06:53:57.838Z,46.37
2019-04-23T06:56:37.113Z,46.21
2019-04-23T06:58:58.855Z,46.30
2019-04-23T07:01:17.600Z,46.73
2019-04-23T07:04:02.173Z,46.74
2019-04-23T07:06:23.756Z,45.87
2019-04-23T07:09:05.279Z,45.75
2019-04-23T07:13:54.624Z,46.09
2019-04-23T07:18:41.194Z,45.55
2019-04-23T07:21:16.916Z,45.55
2019-04-23T07:23:47.733Z,45.05
2019-04-23T07:26:24.331Z,44.68
2019-04-23T07:28:48.495Z,43.50
2019-04-23T07:31:18.355Z,44.20
2019-04-23T07:33:35.059Z,43.56
2019-04-23T07:36:03.884Z,42.44
2019-04-23T07:38:54.670Z,43.12
2019-04-23T07:41:28.557Z,42.31
2019-04-23T07:43:55.398Z,42.45
2019-04-23T07:46:33.766Z,42.35
2019-04-23T07:48:50.675Z,41.67
2019-04-23T07:51:19.466Z,42.57
2019-04-23T07:53:56.384Z,41.88
2019-04-23T07:56:21.480Z,42.09
2019-04-23T07:58:40.101Z,40.93
2019-04-23T08:01:08.357Z,40.73
2019-04-23T08:03:43.884Z,41.05
2019-04-23T08:06:05.881Z,40.61
2019-04-23T08:08:37.814Z,39.80
2019-04-23T08:13:50.671Z,40.28
2019-04-23T08:16:18.244Z,40.60
2019-04-23T08:18:45.551Z,40.48
2019-04-23T08:21:06.082Z,40.06
2019-04-23T08:23:42.751Z,39.84
2019-04-23T08:26:34.838Z,40.20
2019-04-23T08:31:21.994Z,39.00
2019-04-23T08:33:56.842Z,39.17
2019-04-23T08:36:21.245Z,38.65
2019-04-23T08:38:44.423Z,39.58
2019-04-23T08:41:33.453Z,40.07
2019-04-23T08:46:24.145Z,39.33
2019-04-23T08:48:55.817Z,38.31
2019-04-23T08:51:32.279Z,38.90
2019-04-23T08:53:46.013Z,39.86
2019-04-23T08:56:08.728Z,38.50
2019-04-23T08:58:35.310Z,38.48
2019-04-23T09:01:12.278Z,39.01
2019-04-23T09:03:34.512Z,38.44
2019-04-23T09:06:05.358Z,38.64
2019-04-23T09:08:32.371Z,37.90
2019-04-23T09:11:19.427Z,38.11
2019-04-23T09:13:54.805Z,37.72
2019-04-23T09:15:56.607Z,37.96
2019-04-23T09:18:26.320Z,37.43
2019-04-23T09:20:55.211Z,37.37
2019-04-23T09:23:36.344Z,37.23
2019-04-23T09:25:54.366Z,36.92
2019-04-23T09:30:56.020Z,38.12
2019-04-23T09:33:33.973Z,37.13
2019-04-23T09:36:08.314Z,38.26
2019-04-23T09:38:41.391Z,38.16
2019-04-23T09:43:47.142Z,38.24
2019-04-23T09:46:25.699Z,38.03
2019-04-23T09:51:20.954Z,38.33
2019-04-23T09:53:41.170Z,37.82
2019-04-23T09:56:14.638Z,37.80
2019-04-23T09:58:41.515Z,38.28
2019-04-23T10:01:25.014Z,38.54
2019-04-23T10:03:38.524Z,37.44
2019-04-23T10:06:02.997Z,37.25
2019-04-23T10:08:27.923Z,37.95
2019-04-23T10:10:49.205Z,38.19
2019-04-23T10:13:15.922Z,37.56
2019-04-23T10:15:45.984Z,37.47
2019-04-23T10:18:11.999Z,36.66
2019-04-23T10:20:38.612Z,37.47
2019-04-23T10:23:06.271Z,37.50
2019-04-23T10:25:34.032Z,37.96
2019-04-23T10:28:05.377Z,37.91
2019-04-23T10:30:31.174Z,37.94
2019-04-23T10:32:57.877Z,37.86
2019-04-23T10:35:35.277Z,37.38
2019-04-23T10:37:58.594Z,38.69
2019-04-23T10:40:26.175Z,37.75
2019-04-23T10:42:51.749Z,37.29
2019-04-23T10:45:35.184Z,37.94
2019-04-23T10:48:31.743Z,37.97
2019-04-23T10:51:07.771Z,37.72
2019-04-23T10:53:37.902Z,37.78
2019-04-23T10:56:11.363Z,37.80
2019-04-23T10:58:36.880Z,38.16
2019-04-23T11:01:06.367Z,37.62
2019-04-23T11:03:49.240Z,36.69
2019-04-23T11:06:15.088Z,37.24
2019-04-23T11:08:31.127Z,36.96
2019-04-23T11:10:57.793Z,37.10
2019-04-23T11:16:24.734Z,36.85
2019-04-23T11:18:38.322Z,37.85
2019-04-23T11:20:56.416Z,36.08
2019-04-23T11:23:30.343Z,36.28
2019-04-23T11:25:55.870Z,36.18
2019-04-23T11:28:27.546Z,35.99
2019-04-23T11:30:54.831Z,35.78
2019-04-23T11:33:20.246Z,35.17
2019-04-23T11:36:22.186Z,35.80
2019-04-23T11:40:54.016Z,35.39
2019-04-23T11:43:28.102Z,35.71
2019-04-23T11:45:57.635Z,34.67
2019-04-23T11:48:46.228Z,35.31
2019-04-23T11:51:20.780Z,34.13
2019-04-23T11:53:20.432Z,34.29
2019-04-23T11:55:49.296Z,33.93
2019-04-23T12:01:05.552Z,34.31
2019-04-23T12:03:19.642Z,34.05
2019-04-23T12:06:15.339Z,33.07
2019-04-23T12:08:44.664Z,33.42
2019-04-23T12:14:10.234Z,32.79
2019-04-23T12:16:41.131Z,33.29
2019-04-23T12:19:28.923Z,33.20
2019-04-23T12:21:37.984Z,32.87
2019-04-23T12:24:05.174Z,32.32
2019-04-23T12:26:38.952Z,32.12
2019-04-23T12:28:57.714Z,32.70
2019-04-23T12:31:31.462Z,32.45
2019-04-23T12:34:01.050Z,32.50
2019-04-23T12:41:47.799Z,31.56
2019-04-23T12:44:07.866Z,31.42
2019-04-23T12:46:45.086Z,31.42
2019-04-23T12:49:20.552Z,31.30
2019-04-23T12:51:45.213Z,32.43
2019-04-23T12:54:07.730Z,32.01
2019-04-23T12:56:46.416Z,32.05
2019-04-23T12:58:51.059Z,31.55
2019-04-23T13:01:35.876Z,32.40
2019-04-23T13:03:45.819Z,31.99
2019-04-23T13:06:20.886Z,32.30
2019-04-23T13:08:53.763Z,31.71
2019-04-23T13:11:21.574Z,32.42
2019-04-23T13:13:53.537Z,32.28
2019-04-23T13:16:21.246Z,32.25
2019-04-23T13:18:44.793Z,33.82
2019-04-23T13:21:30.082Z,32.14
2019-04-23T13:23:38.938Z,32.21
2019-04-23T13:26:05.683Z,33.04
2019-04-23T13:28:38.745Z,33.30
2019-04-23T13:41:09.062Z,34.48
2019-04-23T13:44:34.355Z,33.88
2019-04-23T13:46:09.177Z,34.25
2019-04-23T13:48:19.947Z,34.46
2019-04-23T13:51:00.238Z,33.50
2019-04-23T13:53:35.516Z,33.39
2019-04-23T13:55:56.684Z,34.40
2019-04-23T14:01:00.923Z,33.93
2019-04-23T14:03:30.263Z,33.84
2019-04-23T14:05:52.667Z,34.17
2019-04-23T14:08:32.959Z,34.02
2019-04-23T14:10:48.067Z,34.24
2019-04-23T14:13:39.376Z,34.10
2019-04-23T14:16:01.619Z,34.40
2019-04-23T14:20:40.423Z,33.92
2019-04-23T14:23:10.742Z,34.18
2019-04-23T14:25:51.948Z,34.83
2019-04-23T14:33:12.048Z,35.32
2019-04-23T14:35:33.327Z,35.17
2019-04-23T14:38:19.978Z,35.13
2019-04-23T14:40:40.060Z,35.54
2019-04-23T14:43:06.516Z,35.74
2019-04-23T14:46:15.501Z,35.44
2019-04-23T14:48:08.962Z,36.30
2019-04-23T14:53:06.771Z,35.47
2019-04-23T14:58:10.563Z,36.10
2019-04-23T15:00:33.594Z,36.48
2019-04-23T15:03:08.760Z,36.09
2019-04-23T15:05:33.829Z,36.02
2019-04-23T15:08:02.189Z,35.79
2019-04-23T15:10:24.554Z,36.27
2019-04-23T15:12:50.606Z,36.67
2019-04-23T15:17:49.837Z,36.71
2019-04-23T15:23:11.207Z,36.75
2019-04-23T15:25:25.445Z,37.04
2019-04-23T15:30:03.681Z,36.95
2019-04-23T15:40:08.190Z,36.86
2019-04-23T15:45:09.352Z,37.28
2019-04-23T15:47:32.795Z,37.33
2019-04-23T15:52:40.149Z,36.85
2019-04-23T15:55:01.228Z,37.14
2019-04-23T15:57:40.321Z,37.37
2019-04-23T15:59:55.951Z,36.55
2019-04-23T16:01:53.520Z,37.08
2019-04-23T16:04:20.776Z,37.03
2019-04-23T16:06:47.885Z,37.45
2019-04-23T16:09:50.832Z,37.52
2019-04-23T16:12:03.447Z,38.15
2019-04-23T16:20:06.126Z,38.11
2019-04-23T16:22:18.970Z,38.01
2019-04-23T16:24:56.022Z,37.69
2019-04-23T16:27:17.025Z,37.89
2019-04-23T16:32:31.423Z,38.31
2019-04-23T16:35:15.619Z,38.12
2019-04-23T16:37:29.159Z,38.38
2019-04-23T16:40:03.485Z,38.51
2019-04-23T16:42:23.610Z,39.13
2019-04-23T16:50:03.185Z,39.33
2019-04-23T16:54:56.077Z,38.95
2019-04-23T16:57:35.708Z,39.28
2019-04-23T16:59:51.482Z,39.45
2019-04-23T17:02:17.488Z,39.26
2019-04-23T17:04:38.665Z,39.56
2019-04-23T17:07:12.073Z,39.22
2019-04-23T17:09:42.480Z,39.46
2019-04-23T17:12:10.508Z,39.93
2019-04-23T17:14:48.011Z,39.94
2019-04-23T17:16:53.540Z,40.15
2019-04-23T17:19:31.255Z,40.02
2019-04-23T17:22:02.825Z,40.00
2019-04-23T17:26:57.353Z,40.69
2019-04-23T17:29:28.686Z,41.43
2019-04-23T17:32:05.564Z,40.72
2019-04-23T17:37:26.881Z,40.87
2019-04-23T17:40:06.735Z,41.54
2019-04-23T17:42:29.217Z,41.34
2019-04-23T17:45:26.001Z,41.57
2019-04-23T17:50:23.500Z,41.70
2019-04-23T17:52:34.581Z,41.99
2019-04-23T17:55:10.911Z,42.77
2019-04-23T17:57:28.248Z,41.64
2019-04-23T18:02:51.679Z,42.42
2019-04-23T18:05:02.426Z,42.07
2019-04-23T18:07:38.437Z,42.07
2019-04-23T18:10:11.644Z,43.11
2019-04-23T18:12:30.765Z,42.89
2019-04-23T18:14:52.731Z,42.62
2019-04-23T18:17:35.629Z,42.28
2019-04-23T18:20:05.013Z,42.84
2019-04-23T18:25:19.508Z,44.06
2019-04-23T18:27:46.996Z,43.50
2019-04-23T18:33:32.709Z,43.04
2019-04-23T18:35:34.195Z,43.00
2019-04-23T18:37:56.475Z,43.62
2019-04-23T18:40:28.629Z,43.86
2019-04-23T18:42:53.523Z,43.32
2019-04-23T18:45:33.932Z,43.31
2019-04-23T18:47:48.949Z,43.46
2019-04-23T18:50:32.695Z,43.41
2019-04-23T18:55:24.497Z,44.48
2019-04-23T18:57:53.278Z,44.08
2019-04-23T19:00:18.498Z,44.92
2019-04-23T19:02:58.519Z,44.46
2019-04-23T19:05:31.391Z,43.87
2019-04-23T19:08:14.702Z,43.72
2019-04-23T19:10:48.669Z,43.61
2019-04-23T19:13:17.625Z,44.06
2019-04-23T19:18:14.534Z,44.51
2019-04-23T19:20:55.808Z,44.05
2019-04-23T19:23:16.478Z,44.54
2019-04-23T19:25:38.798Z,44.02
2019-04-23T19:28:23.579Z,43.92
2019-04-23T19:31:05.591Z,44.26
2019-04-23T19:33:41.635Z,44.63
2019-04-23T19:38:25.104Z,44.48
2019-04-23T19:41:02.196Z,44.67
2019-04-23T19:43:18.179Z,44.86
2019-04-23T19:48:28.045Z,44.69
2019-04-23T19:58:13.837Z,44.59
2019-04-23T20:01:00.593Z,45.16
2019-04-23T20:03:17.119Z,44.85
2019-04-23T20:05:41.483Z,44.98
2019-04-23T20:10:33.062Z,44.72
2019-04-23T20:13:02.093Z,45.48
2019-04-23T20:15:41.125Z,45.15
2019-04-23T20:18:21.916Z,45.40
2019-04-23T20:20:33.754Z,45.19
2019-04-23T20:23:00.109Z,45.29
2019-04-23T20:28:15.010Z,45.62
2019-04-23T20:31:03.498Z,45.36
2019-04-23T20:35:40.790Z,45.66
2019-04-23T20:40:51.261Z,45.93
2019-04-23T20:42:58.371Z,45.83
2019-04-23T20:45:41.021Z,45.79
2019-04-23T20:48:04.827Z,46.04
2019-04-23T20:50:34.790Z,46.14
2019-04-23T20:52:59.640Z,46.22
2019-04-23T20:55:40.758Z,45.98
2019-04-23T20:58:13.884Z,46.57
2019-04-23T21:00:59.183Z,46.50
2019-04-23T21:05:49.981Z,46.50
2019-04-23T21:08:22.409Z,46.59
2019-04-23T21:10:51.116Z,46.66
2019-04-23T21:18:22.728Z,46.74
2019-04-23T21:20:42.688Z,47.41
2019-04-23T21:23:11.307Z,47.10
2019-04-23T21:28:18.203Z,47.43
2019-04-23T21:33:26.551Z,47.93
2019-04-23T21:36:12.650Z,47.22
2019-04-23T21:38:41.825Z,47.50
2019-04-23T21:41:05.949Z,47.14
2019-04-23T21:43:47.547Z,47.27
2019-04-23T21:46:15.889Z,47.77
2019-04-23T21:48:50.969Z,47.93
2019-04-23T21:53:33.125Z,47.92
2019-04-23T21:56:02.458Z,47.71
2019-04-23T22:03:49.655Z,47.68
2019-04-23T22:05:55.526Z,48.29
2019-04-23T22:08:16.995Z,47.87
2019-04-23T22:11:11.545Z,47.71
2019-04-23T22:13:29.573Z,48.28
2019-04-23T22:16:03.965Z,47.93
2019-04-23T22:18:16.165Z,48.24
2019-04-23T22:23:10.836Z,48.11
2019-04-23T22:25:50.195Z,48.20
2019-04-23T22:28:10.155Z,48.31
2019-04-23T22:30:54.720Z,49.01
2019-04-23T22:35:44.595Z,48.57
2019-04-23T22:40:28.391Z,48.69
2019-04-23T22:45:27.517Z,48.66
2019-04-23T22:47:54.969Z,48.99
2019-04-23T22:50:19.135Z,48.79
2019-04-23T22:52:53.805Z,48.74
2019-04-23T22:55:17.503Z,49.01
2019-04-23T22:58:01.360Z,48.58
2019-04-23T23:02:58.363Z,49.41
2019-04-23T23:05:37.559Z,48.98
2019-04-23T23:08:01.684Z,49.45
2019-04-23T23:10:12.963Z,48.94
2019-04-23T23:12:56.057Z,49.09
2019-04-23T23:15:17.831Z,49.25
2019-04-23T23:17:45.538Z,49.40
2019-04-23T23:22:39.817Z,50.07
2019-04-23T23:25:13.409Z,49.74
2019-04-23T23:27:32.335Z,49.66
2019-04-23T23:30:02.733Z,49.63
2019-04-23T23:35:08.031Z,49.70
2019-04-23T23:37:23.498Z,50.08
2019-04-23T23:39:58.382Z,49.79
2019-04-23T23:42:15.532Z,49.73
2019-04-23T23:44:58.300Z,49.85
2019-04-23T23:49:46.009Z,50.11
2019-04-23T23:52:02.966Z,50.35
2019-04-23T23:54:40.304Z,50.23
2019-04-23T23:57:12.097Z,50.31
